EGQM

Boulmer Airfield Airport

Boulmer, United Kingdom
METAR EGQM 272350Z AUTO 33004KT 1100 BR BKN002/// 12/12 Q1021
Observed Flight Rules
May-27 @ 23:50 UTC (an hour ago) Instrument Flight Rules
Wind Visibility Clouds Conditions
330° at 4 knots 1,094 meters
  • Broken at 200' AGL
  • Mist
Temperatures Readings
Current 12°C / 54°F
Dewpoint 12°C / 54°F
Humidity 100%
Altimeter 30.15" Hg
Pressure 1021 hPa
Elevation 23
METAR EGQM 272350Z AUTO 33004KT 1100 BR BKN002/// 12/12 Q1021
Observed Flight Rules
May-27 @ 23:50 UTC
(an hour ago)
LIFR
Wind Visibility
330° at 4 knots 1,094 meters
Clouds
  • Broken at 200' AGL
Conditions
  • Mist
Temperature Dewpoint
12°C / 54°F 12°C / 54°F
Humidity Altimeter Pressure
100% 30.15" Hg 1021 hPa